sensor_id;sensor_type;location;lat;lon;timestamp;pressure;altitude;pressure_sealevel;temperature
59339;BMP280;45117;50.960;5.500;2023-08-08T00:01:36;100639.00;;;12.92
59339;BMP280;45117;50.960;5.500;2023-08-08T00:04:17;100647.91;;;13.09
59339;BMP280;45117;50.960;5.500;2023-08-08T00:07:11;100540.28;;;12.38
59339;BMP280;45117;50.960;5.500;2023-08-08T00:10:08;100593.31;;;12.85
59339;BMP280;45117;50.960;5.500;2023-08-08T00:12:43;100632.31;;;13.16
59339;BMP280;45117;50.960;5.500;2023-08-08T00:15:20;100619.09;;;13.06
59339;BMP280;45117;50.960;5.500;2023-08-08T00:17:47;100533.59;;;12.47
59339;BMP280;45117;50.960;5.500;2023-08-08T00:20:15;100634.22;;;13.19
59339;BMP280;45117;50.960;5.500;2023-08-08T00:22:42;100578.78;;;12.79
59339;BMP280;45117;50.960;5.500;2023-08-08T00:25:08;100534.47;;;12.40
59339;BMP280;45117;50.960;5.500;2023-08-08T00:27:35;100597.03;;;12.91
59339;BMP280;45117;50.960;5.500;2023-08-08T00:30:25;100537.41;;;12.49
59339;BMP280;45117;50.960;5.500;2023-08-08T00:33:30;100521.41;;;12.42
59339;BMP280;45117;50.960;5.500;2023-08-08T00:36:25;100529.84;;;12.41
59339;BMP280;45117;50.960;5.500;2023-08-08T00:39:06;100613.28;;;12.87
59339;BMP280;45117;50.960;5.500;2023-08-08T00:41:53;100644.03;;;13.10
59339;BMP280;45117;50.960;5.500;2023-08-08T00:44:20;100578.72;;;12.62
59339;BMP280;45117;50.960;5.500;2023-08-08T00:46:54;100610.34;;;12.78
59339;BMP280;45117;50.960;5.500;2023-08-08T00:49:34;100547.75;;;12.31
59339;BMP280;45117;50.960;5.500;2023-08-08T00:52:08;100540.63;;;12.21
59339;BMP280;45117;50.960;5.500;2023-08-08T00:54:39;100583.31;;;12.42
59339;BMP280;45117;50.960;5.500;2023-08-08T00:57:26;100634.41;;;12.89
59339;BMP280;45117;50.960;5.500;2023-08-08T00:59:55;100592.72;;;12.54
59339;BMP280;45117;50.960;5.500;2023-08-08T01:02:28;100638.69;;;12.86
59339;BMP280;45117;50.960;5.500;2023-08-08T01:05:12;100636.41;;;12.85
59339;BMP280;45117;50.960;5.500;2023-08-08T01:07:52;100604.09;;;12.61
59339;BMP280;45117;50.960;5.500;2023-08-08T01:10:24;100586.28;;;12.48
59339;BMP280;45117;50.960;5.500;2023-08-08T01:13:26;100566.50;;;12.34
59339;BMP280;45117;50.960;5.500;2023-08-08T01:16:05;100615.75;;;12.58
59339;BMP280;45117;50.960;5.500;2023-08-08T01:18:57;100588.69;;;12.42
59339;BMP280;45117;50.960;5.500;2023-08-08T01:21:57;100589.84;;;12.41
59339;BMP280;45117;50.960;5.500;2023-08-08T01:24:40;100621.44;;;12.60
59339;BMP280;45117;50.960;5.500;2023-08-08T01:27:30;100551.00;;;12.19
59339;BMP280;45117;50.960;5.500;2023-08-08T01:30:24;100538.19;;;12.03
59339;BMP280;45117;50.960;5.500;2023-08-08T01:32:51;100558.31;;;12.18
59339;BMP280;45117;50.960;5.500;2023-08-08T01:35:18;100551.50;;;12.14
59339;BMP280;45117;50.960;5.500;2023-08-08T01:37:49;100624.88;;;12.61
59339;BMP280;45117;50.960;5.500;2023-08-08T01:40:18;100569.84;;;12.19
59339;BMP280;45117;50.960;5.500;2023-08-08T01:42:47;100566.84;;;12.17
59339;BMP280;45117;50.960;5.500;2023-08-08T01:45:15;100618.06;;;12.56
59339;BMP280;45117;50.960;5.500;2023-08-08T01:47:41;100613.91;;;12.52
59339;BMP280;45117;50.960;5.500;2023-08-08T01:50:09;100532.63;;;11.90
59339;BMP280;45117;50.960;5.500;2023-08-08T01:52:36;100558.56;;;12.04
59339;BMP280;45117;50.960;5.500;2023-08-08T01:55:03;100578.41;;;12.14
59339;BMP280;45117;50.960;5.500;2023-08-08T01:57:32;100572.75;;;12.08
59339;BMP280;45117;50.960;5.500;2023-08-08T01:59:59;100530.44;;;11.85
59339;BMP280;45117;50.960;5.500;2023-08-08T02:02:26;100617.94;;;12.40
59339;BMP280;45117;50.960;5.500;2023-08-08T02:04:53;100520.25;;;11.73
59339;BMP280;45117;50.960;5.500;2023-08-08T02:07:19;100519.94;;;11.67
59339;BMP280;45117;50.960;5.500;2023-08-08T02:09:46;100599.00;;;12.24
59339;BMP280;45117;50.960;5.500;2023-08-08T02:12:14;100586.06;;;12.15
59339;BMP280;45117;50.960;5.500;2023-08-08T02:14:42;100630.19;;;12.45
59339;BMP280;45117;50.960;5.500;2023-08-08T02:17:09;100595.13;;;12.25
59339;BMP280;45117;50.960;5.500;2023-08-08T02:19:35;100564.56;;;12.12
59339;BMP280;45117;50.960;5.500;2023-08-08T02:22:04;100536.19;;;11.87
59339;BMP280;45117;50.960;5.500;2023-08-08T02:24:30;100625.91;;;12.47
59339;BMP280;45117;50.960;5.500;2023-08-08T02:26:57;100519.38;;;11.79
59339;BMP280;45117;50.960;5.500;2023-08-08T02:29:24;100596.09;;;12.38
59339;BMP280;45117;50.960;5.500;2023-08-08T02:31:52;100552.25;;;12.14
59339;BMP280;45117;50.960;5.500;2023-08-08T02:34:18;100491.38;;;11.77
59339;BMP280;45117;50.960;5.500;2023-08-08T02:36:45;100552.19;;;12.18
59339;BMP280;45117;50.960;5.500;2023-08-08T02:39:12;100594.44;;;12.44
59339;BMP280;45117;50.960;5.500;2023-08-08T02:41:38;100566.63;;;12.27
59339;BMP280;45117;50.960;5.500;2023-08-08T02:44:06;100510.81;;;11.88
59339;BMP280;45117;50.960;5.500;2023-08-08T02:46:33;100541.53;;;12.11
59339;BMP280;45117;50.960;5.500;2023-08-08T02:49:01;100482.63;;;11.69
59339;BMP280;45117;50.960;5.500;2023-08-08T02:51:27;100580.97;;;12.44
59339;BMP280;45117;50.960;5.500;2023-08-08T02:53:57;100517.78;;;12.05
59339;BMP280;45117;50.960;5.500;2023-08-08T02:56:25;100523.13;;;12.09
59339;BMP280;45117;50.960;5.500;2023-08-08T02:58:52;100540.97;;;12.23
59339;BMP280;45117;50.960;5.500;2023-08-08T03:01:19;100539.44;;;12.22
59339;BMP280;45117;50.960;5.500;2023-08-08T03:03:47;100517.03;;;12.05
59339;BMP280;45117;50.960;5.500;2023-08-08T03:06:15;100553.47;;;12.33
59339;BMP280;45117;50.960;5.500;2023-08-08T03:08:41;100568.69;;;12.43
59339;BMP280;45117;50.960;5.500;2023-08-08T03:11:08;100484.97;;;11.91
59339;BMP280;45117;50.960;5.500;2023-08-08T03:13:35;100470.53;;;11.81
59339;BMP280;45117;50.960;5.500;2023-08-08T03:16:02;100552.41;;;12.27
59339;BMP280;45117;50.960;5.500;2023-08-08T03:18:29;100474.53;;;11.73
59339;BMP280;45117;50.960;5.500;2023-08-08T03:20:56;100496.16;;;11.89
59339;BMP280;45117;50.960;5.500;2023-08-08T03:23:24;100460.75;;;11.71
59339;BMP280;45117;50.960;5.500;2023-08-08T03:25:51;100552.41;;;12.27
59339;BMP280;45117;50.960;5.500;2023-08-08T03:28:18;100466.47;;;11.73
59339;BMP280;45117;50.960;5.500;2023-08-08T03:30:44;100534.59;;;12.13
59339;BMP280;45117;50.960;5.500;2023-08-08T03:33:11;100549.38;;;12.25
59339;BMP280;45117;50.960;5.500;2023-08-08T03:35:38;100576.59;;;12.30
59339;BMP280;45117;50.960;5.500;2023-08-08T03:38:04;100553.00;;;12.15
59339;BMP280;45117;50.960;5.500;2023-08-08T03:40:32;100564.34;;;12.26
59339;BMP280;45117;50.960;5.500;2023-08-08T03:42:59;100558.50;;;12.31
59339;BMP280;45117;50.960;5.500;2023-08-08T03:45:26;100555.88;;;12.27
59339;BMP280;45117;50.960;5.500;2023-08-08T03:47:53;100469.97;;;11.70
59339;BMP280;45117;50.960;5.500;2023-08-08T03:50:20;100461.53;;;11.68
59339;BMP280;45117;50.960;5.500;2023-08-08T03:52:46;100526.09;;;12.15
59339;BMP280;45117;50.960;5.500;2023-08-08T03:55:13;100502.63;;;11.95
59339;BMP280;45117;50.960;5.500;2023-08-08T03:57:41;100505.34;;;11.92
59339;BMP280;45117;50.960;5.500;2023-08-08T04:00:08;100545.09;;;12.27
59339;BMP280;45117;50.960;5.500;2023-08-08T04:02:37;100504.84;;;12.00
59339;BMP280;45117;50.960;5.500;2023-08-08T04:05:04;100461.13;;;11.69
59339;BMP280;45117;50.960;5.500;2023-08-08T04:07:31;100505.63;;;11.97
59339;BMP280;45117;50.960;5.500;2023-08-08T04:10:09;100436.81;;;11.53
59339;BMP280;45117;50.960;5.500;2023-08-08T04:12:36;100552.78;;;12.29
59339;BMP280;45117;50.960;5.500;2023-08-08T04:15:06;100468.34;;;11.76
59339;BMP280;45117;50.960;5.500;2023-08-08T04:17:33;100446.28;;;11.61
59339;BMP280;45117;50.960;5.500;2023-08-08T04:19:59;100431.03;;;11.55
59339;BMP280;45117;50.960;5.500;2023-08-08T04:22:30;100513.13;;;12.10
59339;BMP280;45117;50.960;5.500;2023-08-08T04:24:57;100458.34;;;11.76
59339;BMP280;45117;50.960;5.500;2023-08-08T04:27:24;100467.47;;;11.83
59339;BMP280;45117;50.960;5.500;2023-08-08T04:29:51;100528.69;;;12.22
59339;BMP280;45117;50.960;5.500;2023-08-08T04:32:19;100546.50;;;12.35
59339;BMP280;45117;50.960;5.500;2023-08-08T04:34:45;100541.91;;;12.32
59339;BMP280;45117;50.960;5.500;2023-08-08T04:37:12;100471.25;;;11.85
59339;BMP280;45117;50.960;5.500;2023-08-08T04:39:38;100462.09;;;11.83
59339;BMP280;45117;50.960;5.500;2023-08-08T04:42:05;100479.47;;;11.98
59339;BMP280;45117;50.960;5.500;2023-08-08T04:44:35;100466.09;;;11.94
59339;BMP280;45117;50.960;5.500;2023-08-08T04:47:01;100493.72;;;12.18
59339;BMP280;45117;50.960;5.500;2023-08-08T04:49:30;100492.84;;;12.25
59339;BMP280;45117;50.960;5.500;2023-08-08T04:51:57;100540.19;;;12.65
59339;BMP280;45117;50.960;5.500;2023-08-08T04:54:23;100532.09;;;12.65
59339;BMP280;45117;50.960;5.500;2023-08-08T04:56:50;100472.72;;;12.33
59339;BMP280;45117;50.960;5.500;2023-08-08T04:59:17;100517.03;;;12.68
59339;BMP280;45117;50.960;5.500;2023-08-08T05:01:43;100500.97;;;12.64
59339;BMP280;45117;50.960;5.500;2023-08-08T05:04:13;100444.47;;;12.41
59339;BMP280;45117;50.960;5.500;2023-08-08T05:06:41;100565.16;;;13.26
59339;BMP280;45117;50.960;5.500;2023-08-08T05:09:08;100446.63;;;12.50
59339;BMP280;45117;50.960;5.500;2023-08-08T05:11:36;100485.47;;;12.88
59339;BMP280;45117;50.960;5.500;2023-08-08T05:14:03;100549.75;;;13.42
59339;BMP280;45117;50.960;5.500;2023-08-08T05:16:30;100475.97;;;13.00
59339;BMP280;45117;50.960;5.500;2023-08-08T05:18:57;100510.81;;;13.60
59339;BMP280;45117;50.960;5.500;2023-08-08T05:21:23;100546.28;;;13.91
59339;BMP280;45117;50.960;5.500;2023-08-08T05:23:51;100427.81;;;13.51
59339;BMP280;45117;50.960;5.500;2023-08-08T05:26:18;100557.09;;;14.65
59339;BMP280;45117;50.960;5.500;2023-08-08T05:28:45;100525.59;;;15.73
59339;BMP280;45117;50.960;5.500;2023-08-08T05:31:11;100531.91;;;17.19
59339;BMP280;45117;50.960;5.500;2023-08-08T05:33:38;100512.38;;;16.53
59339;BMP280;45117;50.960;5.500;2023-08-08T05:36:04;100531.16;;;15.69
59339;BMP280;45117;50.960;5.500;2023-08-08T05:38:31;100545.22;;;15.51
59339;BMP280;45117;50.960;5.500;2023-08-08T05:40:59;100532.50;;;15.14
59339;BMP280;45117;50.960;5.500;2023-08-08T05:43:26;100551.16;;;16.06
59339;BMP280;45117;50.960;5.500;2023-08-08T05:45:53;100439.25;;;15.31
59339;BMP280;45117;50.960;5.500;2023-08-08T05:48:20;100495.00;;;16.19
59339;BMP280;45117;50.960;5.500;2023-08-08T05:50:47;100486.25;;;16.77
59339;BMP280;45117;50.960;5.500;2023-08-08T05:53:13;100479.75;;;16.44
59339;BMP280;45117;50.960;5.500;2023-08-08T05:55:41;100452.69;;;15.56
59339;BMP280;45117;50.960;5.500;2023-08-08T05:58:09;100498.69;;;16.13
59339;BMP280;45117;50.960;5.500;2023-08-08T06:00:36;100513.44;;;16.96
59339;BMP280;45117;50.960;5.500;2023-08-08T06:03:03;100478.69;;;16.72
59339;BMP280;45117;50.960;5.500;2023-08-08T06:05:33;100507.00;;;16.18
59339;BMP280;45117;50.960;5.500;2023-08-08T06:08:02;100468.50;;;15.45
59339;BMP280;45117;50.960;5.500;2023-08-08T06:10:29;100561.19;;;15.84
59339;BMP280;45117;50.960;5.500;2023-08-08T06:12:56;100479.69;;;15.34
59339;BMP280;45117;50.960;5.500;2023-08-08T06:15:24;100471.38;;;15.29
59339;BMP280;45117;50.960;5.500;2023-08-08T06:17:51;100545.81;;;15.81
59339;BMP280;45117;50.960;5.500;2023-08-08T06:20:17;100480.31;;;16.08
59339;BMP280;45117;50.960;5.500;2023-08-08T06:22:46;100553.09;;;17.11
59339;BMP280;45117;50.960;5.500;2023-08-08T06:25:12;100526.91;;;16.77
59339;BMP280;45117;50.960;5.500;2023-08-08T06:27:40;100514.91;;;16.26
59339;BMP280;45117;50.960;5.500;2023-08-08T06:30:08;100495.41;;;15.74
59339;BMP280;45117;50.960;5.500;2023-08-08T06:32:36;100564.69;;;16.06
59339;BMP280;45117;50.960;5.500;2023-08-08T06:35:03;100507.50;;;15.82
59339;BMP280;45117;50.960;5.500;2023-08-08T06:37:31;100485.47;;;15.58
59339;BMP280;45117;50.960;5.500;2023-08-08T06:39:58;100526.50;;;16.04
59339;BMP280;45117;50.960;5.500;2023-08-08T06:42:24;100518.75;;;16.15
59339;BMP280;45117;50.960;5.500;2023-08-08T06:44:51;100501.00;;;15.80
59339;BMP280;45117;50.960;5.500;2023-08-08T06:47:18;100466.19;;;15.91
59339;BMP280;45117;50.960;5.500;2023-08-08T06:49:46;100564.91;;;16.55
59339;BMP280;45117;50.960;5.500;2023-08-08T06:52:13;100516.38;;;16.79
59339;BMP280;45117;50.960;5.500;2023-08-08T06:54:39;100519.50;;;16.16
59339;BMP280;45117;50.960;5.500;2023-08-08T06:57:06;100575.78;;;16.65
59339;BMP280;45117;50.960;5.500;2023-08-08T06:59:33;100545.94;;;16.34
59339;BMP280;45117;50.960;5.500;2023-08-08T07:02:00;100555.66;;;17.06
59339;BMP280;45117;50.960;5.500;2023-08-08T07:04:26;100540.34;;;17.21
59339;BMP280;45117;50.960;5.500;2023-08-08T07:06:54;100505.06;;;17.12
59339;BMP280;45117;50.960;5.500;2023-08-08T07:09:21;100510.91;;;17.10
59339;BMP280;45117;50.960;5.500;2023-08-08T07:14:48;100477.94;;;17.21
59339;BMP280;45117;50.960;5.500;2023-08-08T07:17:15;100525.47;;;17.35
59339;BMP280;45117;50.960;5.500;2023-08-08T07:19:44;100492.13;;;16.76
59339;BMP280;45117;50.960;5.500;2023-08-08T07:22:18;100480.88;;;16.55
59339;BMP280;45117;50.960;5.500;2023-08-08T07:24:45;100568.22;;;16.81
59339;BMP280;45117;50.960;5.500;2023-08-08T07:27:27;100514.53;;;16.67
59339;BMP280;45117;50.960;5.500;2023-08-08T07:29:54;100582.31;;;16.98
59339;BMP280;45117;50.960;5.500;2023-08-08T07:32:21;100560.34;;;16.74
59339;BMP280;45117;50.960;5.500;2023-08-08T07:34:48;100519.75;;;16.31
59339;BMP280;45117;50.960;5.500;2023-08-08T07:37:15;100525.41;;;16.45
59339;BMP280;45117;50.960;5.500;2023-08-08T07:40:11;100465.22;;;16.19
59339;BMP280;45117;50.960;5.500;2023-08-08T07:42:39;100547.69;;;17.11
59339;BMP280;45117;50.960;5.500;2023-08-08T07:45:07;100476.00;;;16.81
59339;BMP280;45117;50.960;5.500;2023-08-08T07:47:37;100535.28;;;17.51
59339;BMP280;45117;50.960;5.500;2023-08-08T07:50:07;100517.03;;;17.42
59339;BMP280;45117;50.960;5.500;2023-08-08T07:52:37;100550.69;;;17.54
59339;BMP280;45117;50.960;5.500;2023-08-08T07:55:07;100532.59;;;17.60
59339;BMP280;45117;50.960;5.500;2023-08-08T07:57:39;100467.72;;;17.34
59339;BMP280;45117;50.960;5.500;2023-08-08T08:00:07;100473.75;;;17.29
59339;BMP280;45117;50.960;5.500;2023-08-08T08:02:34;100512.97;;;17.74
59339;BMP280;45117;50.960;5.500;2023-08-08T08:05:01;100543.91;;;18.04
59339;BMP280;45117;50.960;5.500;2023-08-08T08:07:30;100490.47;;;17.83
59339;BMP280;45117;50.960;5.500;2023-08-08T08:09:57;100530.28;;;18.31
59339;BMP280;45117;50.960;5.500;2023-08-08T08:12:24;100556.03;;;18.63
59339;BMP280;45117;50.960;5.500;2023-08-08T08:14:52;100533.84;;;18.56
59339;BMP280;45117;50.960;5.500;2023-08-08T08:17:19;100482.06;;;18.50
59339;BMP280;45117;50.960;5.500;2023-08-08T08:19:46;100465.28;;;17.91
59339;BMP280;45117;50.960;5.500;2023-08-08T08:22:20;100466.81;;;17.46
59339;BMP280;45117;50.960;5.500;2023-08-08T08:25:26;100531.66;;;17.90
59339;BMP280;45117;50.960;5.500;2023-08-08T08:27:39;100480.38;;;17.46
59339;BMP280;45117;50.960;5.500;2023-08-08T08:30:08;100529.72;;;17.72
59339;BMP280;45117;50.960;5.500;2023-08-08T08:32:40;100532.28;;;17.94
59339;BMP280;45117;50.960;5.500;2023-08-08T08:35:08;100537.22;;;18.23
59339;BMP280;45117;50.960;5.500;2023-08-08T08:37:46;100480.47;;;18.16
59339;BMP280;45117;50.960;5.500;2023-08-08T08:40:15;100518.22;;;18.65
59339;BMP280;45117;50.960;5.500;2023-08-08T08:42:47;100567.94;;;19.94
59339;BMP280;45117;50.960;5.500;2023-08-08T08:45:22;100511.31;;;19.12
59339;BMP280;45117;50.960;5.500;2023-08-08T08:47:50;100512.63;;;18.69
59339;BMP280;45117;50.960;5.500;2023-08-08T08:50:21;100492.38;;;18.70
59339;BMP280;45117;50.960;5.500;2023-08-08T08:52:50;100520.22;;;19.22
59339;BMP280;45117;50.960;5.500;2023-08-08T08:55:20;100473.84;;;18.92
59339;BMP280;45117;50.960;5.500;2023-08-08T08:57:56;100492.34;;;19.03
59339;BMP280;45117;50.960;5.500;2023-08-08T09:00:26;100474.16;;;18.85
59339;BMP280;45117;50.960;5.500;2023-08-08T09:02:58;100469.53;;;18.77
59339;BMP280;45117;50.960;5.500;2023-08-08T09:05:25;100560.16;;;19.16
59339;BMP280;45117;50.960;5.500;2023-08-08T09:08:00;100526.56;;;18.95
59339;BMP280;45117;50.960;5.500;2023-08-08T09:10:30;100516.97;;;18.76
59339;BMP280;45117;50.960;5.500;2023-08-08T09:12:58;100518.31;;;18.80
59339;BMP280;45117;50.960;5.500;2023-08-08T09:15:30;100484.09;;;18.64
59339;BMP280;45117;50.960;5.500;2023-08-08T09:18:00;100477.72;;;18.67
59339;BMP280;45117;50.960;5.500;2023-08-08T09:20:28;100483.19;;;18.91
59339;BMP280;45117;50.960;5.500;2023-08-08T09:22:55;100522.53;;;19.53
59339;BMP280;45117;50.960;5.500;2023-08-08T09:25:27;100488.16;;;19.41
59339;BMP280;45117;50.960;5.500;2023-08-08T09:27:58;100474.53;;;19.17
59339;BMP280;45117;50.960;5.500;2023-08-08T09:30:29;100565.31;;;19.38
59339;BMP280;45117;50.960;5.500;2023-08-08T09:33:00;100541.66;;;18.96
59339;BMP280;45117;50.960;5.500;2023-08-08T09:35:41;100535.06;;;19.12
59339;BMP280;45117;50.960;5.500;2023-08-08T09:38:07;100496.31;;;19.02
59339;BMP280;45117;50.960;5.500;2023-08-08T09:41:01;100492.66;;;18.72
59339;BMP280;45117;50.960;5.500;2023-08-08T09:43:29;100511.72;;;18.96
59339;BMP280;45117;50.960;5.500;2023-08-08T09:45:58;100551.09;;;19.81
59339;BMP280;45117;50.960;5.500;2023-08-08T09:48:29;100560.13;;;20.02
59339;BMP280;45117;50.960;5.500;2023-08-08T09:50:58;100531.34;;;19.86
59339;BMP280;45117;50.960;5.500;2023-08-08T09:53:27;100483.06;;;19.33
59339;BMP280;45117;50.960;5.500;2023-08-08T09:56:12;100492.19;;;19.45
59339;BMP280;45117;50.960;5.500;2023-08-08T09:58:41;100495.88;;;19.57
59339;BMP280;45117;50.960;5.500;2023-08-08T10:01:10;100494.38;;;20.44
59339;BMP280;45117;50.960;5.500;2023-08-08T10:03:41;100527.50;;;20.08
59339;BMP280;45117;50.960;5.500;2023-08-08T10:06:13;100579.88;;;20.26
59339;BMP280;45117;50.960;5.500;2023-08-08T10:08:40;100584.47;;;20.50
59339;BMP280;45117;50.960;5.500;2023-08-08T10:11:08;100558.88;;;19.88
59339;BMP280;45117;50.960;5.500;2023-08-08T10:13:36;100577.25;;;20.03
59339;BMP280;45117;50.960;5.500;2023-08-08T10:16:06;100507.63;;;19.63
59339;BMP280;45117;50.960;5.500;2023-08-08T10:18:35;100538.13;;;20.20
59339;BMP280;45117;50.960;5.500;2023-08-08T10:21:04;100486.03;;;20.33
59339;BMP280;45117;50.960;5.500;2023-08-08T10:23:36;100548.53;;;20.51
59339;BMP280;45117;50.960;5.500;2023-08-08T10:26:04;100537.28;;;20.14
59339;BMP280;45117;50.960;5.500;2023-08-08T10:28:32;100482.69;;;19.64
59339;BMP280;45117;50.960;5.500;2023-08-08T10:31:01;100526.25;;;19.64
59339;BMP280;45117;50.960;5.500;2023-08-08T10:33:41;100539.03;;;19.73
59339;BMP280;45117;50.960;5.500;2023-08-08T10:36:09;100550.53;;;20.07
59339;BMP280;45117;50.960;5.500;2023-08-08T10:38:40;100512.94;;;19.81
59339;BMP280;45117;50.960;5.500;2023-08-08T10:41:09;100532.25;;;19.83
59339;BMP280;45117;50.960;5.500;2023-08-08T10:43:37;100544.50;;;19.73
59339;BMP280;45117;50.960;5.500;2023-08-08T10:46:06;100557.44;;;19.63
59339;BMP280;45117;50.960;5.500;2023-08-08T10:48:56;100562.81;;;19.73
59339;BMP280;45117;50.960;5.500;2023-08-08T10:51:36;100473.41;;;19.09
59339;BMP280;45117;50.960;5.500;2023-08-08T10:54:05;100517.09;;;19.53
59339;BMP280;45117;50.960;5.500;2023-08-08T10:56:35;100533.38;;;19.62
59339;BMP280;45117;50.960;5.500;2023-08-08T11:02:02;100499.75;;;19.02
59339;BMP280;45117;50.960;5.500;2023-08-08T11:04:31;100472.72;;;18.66
59339;BMP280;45117;50.960;5.500;2023-08-08T11:06:58;100474.69;;;18.65
59339;BMP280;45117;50.960;5.500;2023-08-08T11:09:28;100563.78;;;19.13
59339;BMP280;45117;50.960;5.500;2023-08-08T11:11:57;100510.50;;;18.73
59339;BMP280;45117;50.960;5.500;2023-08-08T11:14:24;100516.63;;;18.83
59339;BMP280;45117;50.960;5.500;2023-08-08T11:16:52;100528.09;;;18.87
59339;BMP280;45117;50.960;5.500;2023-08-08T11:19:24;100446.88;;;18.47
59339;BMP280;45117;50.960;5.500;2023-08-08T11:21:59;100517.75;;;19.00
59339;BMP280;45117;50.960;5.500;2023-08-08T11:24:34;100463.91;;;18.47
59339;BMP280;45117;50.960;5.500;2023-08-08T11:27:03;100532.50;;;18.84
59339;BMP280;45117;50.960;5.500;2023-08-08T11:29:30;100434.56;;;18.18
59339;BMP280;45117;50.960;5.500;2023-08-08T11:31:59;100484.69;;;18.68
59339;BMP280;45117;50.960;5.500;2023-08-08T11:34:31;100461.63;;;18.55
59339;BMP280;45117;50.960;5.500;2023-08-08T11:37:00;100494.81;;;18.92
59339;BMP280;45117;50.960;5.500;2023-08-08T11:39:29;100451.25;;;18.44
59339;BMP280;45117;50.960;5.500;2023-08-08T11:42:01;100494.47;;;18.66
59339;BMP280;45117;50.960;5.500;2023-08-08T11:44:31;100510.03;;;18.75
59339;BMP280;45117;50.960;5.500;2023-08-08T11:46:59;100459.47;;;18.26
59339;BMP280;45117;50.960;5.500;2023-08-08T11:49:26;100443.22;;;17.98
59339;BMP280;45117;50.960;5.500;2023-08-08T11:51:54;100475.50;;;18.05
59339;BMP280;45117;50.960;5.500;2023-08-08T11:54:30;100497.25;;;18.05
59339;BMP280;45117;50.960;5.500;2023-08-08T11:56:57;100463.06;;;17.62
59339;BMP280;45117;50.960;5.500;2023-08-08T11:59:24;100461.69;;;17.48
59339;BMP280;45117;50.960;5.500;2023-08-08T12:01:53;100542.88;;;17.83
59339;BMP280;45117;50.960;5.500;2023-08-08T12:04:22;100479.19;;;17.38
59339;BMP280;45117;50.960;5.500;2023-08-08T12:06:49;100496.34;;;17.35
59339;BMP280;45117;50.960;5.500;2023-08-08T12:09:17;100434.00;;;16.86
59339;BMP280;45117;50.960;5.500;2023-08-08T12:11:45;100476.38;;;17.02
59339;BMP280;45117;50.960;5.500;2023-08-08T12:14:14;100460.66;;;16.78
59339;BMP280;45117;50.960;5.500;2023-08-08T12:16:43;100542.34;;;17.39
59339;BMP280;45117;50.960;5.500;2023-08-08T12:19:11;100459.75;;;16.81
59339;BMP280;45117;50.960;5.500;2023-08-08T12:21:46;100462.56;;;17.09
59339;BMP280;45117;50.960;5.500;2023-08-08T12:24:13;100506.44;;;18.68
59339;BMP280;45117;50.960;5.500;2023-08-08T12:26:39;100501.47;;;18.67
59339;BMP280;45117;50.960;5.500;2023-08-08T12:29:08;100457.09;;;18.52
59339;BMP280;45117;50.960;5.500;2023-08-08T12:31:35;100470.84;;;18.48
59339;BMP280;45117;50.960;5.500;2023-08-08T12:34:01;100499.72;;;18.79
59339;BMP280;45117;50.960;5.500;2023-08-08T12:36:28;100513.91;;;18.83
59339;BMP280;45117;50.960;5.500;2023-08-08T12:38:55;100500.00;;;18.48
59339;BMP280;45117;50.960;5.500;2023-08-08T12:41:23;100495.94;;;18.43
59339;BMP280;45117;50.960;5.500;2023-08-08T12:43:51;100516.78;;;18.55
59339;BMP280;45117;50.960;5.500;2023-08-08T12:46:19;100452.66;;;18.30
59339;BMP280;45117;50.960;5.500;2023-08-08T12:48:48;100495.47;;;18.87
59339;BMP280;45117;50.960;5.500;2023-08-08T12:51:15;100441.78;;;18.63
59339;BMP280;45117;50.960;5.500;2023-08-08T12:53:42;100475.81;;;19.30
59339;BMP280;45117;50.960;5.500;2023-08-08T12:56:09;100443.69;;;19.20
59339;BMP280;45117;50.960;5.500;2023-08-08T12:58:36;100432.31;;;19.60
59339;BMP280;45117;50.960;5.500;2023-08-08T13:01:04;100481.50;;;20.30
59339;BMP280;45117;50.960;5.500;2023-08-08T13:03:35;100489.34;;;21.39
59339;BMP280;45117;50.960;5.500;2023-08-08T13:06:05;100491.50;;;21.29
59339;BMP280;45117;50.960;5.500;2023-08-08T13:08:32;100453.44;;;20.79
59339;BMP280;45117;50.960;5.500;2023-08-08T13:11:00;100447.91;;;20.39
59339;BMP280;45117;50.960;5.500;2023-08-08T13:13:42;100437.66;;;20.48
59339;BMP280;45117;50.960;5.500;2023-08-08T13:16:15;100517.09;;;20.91
59339;BMP280;45117;50.960;5.500;2023-08-08T13:18:44;100444.47;;;20.23
59339;BMP280;45117;50.960;5.500;2023-08-08T13:21:13;100524.00;;;21.07
59339;BMP280;45117;50.960;5.500;2023-08-08T13:23:40;100462.63;;;21.02
59339;BMP280;45117;50.960;5.500;2023-08-08T13:26:07;100462.97;;;20.69
59339;BMP280;45117;50.960;5.500;2023-08-08T13:28:37;100477.53;;;20.46
59339;BMP280;45117;50.960;5.500;2023-08-08T13:31:06;100462.56;;;20.76
59339;BMP280;45117;50.960;5.500;2023-08-08T13:33:33;100483.66;;;21.68
59339;BMP280;45117;50.960;5.500;2023-08-08T13:36:02;100479.03;;;21.02
59339;BMP280;45117;50.960;5.500;2023-08-08T13:38:29;100476.28;;;21.02
59339;BMP280;45117;50.960;5.500;2023-08-08T13:41:23;100521.06;;;21.10
59339;BMP280;45117;50.960;5.500;2023-08-08T13:43:50;100445.13;;;20.68
59339;BMP280;45117;50.960;5.500;2023-08-08T13:46:17;100427.56;;;20.95
59339;BMP280;45117;50.960;5.500;2023-08-08T13:48:43;100488.19;;;21.45
59339;BMP280;45117;50.960;5.500;2023-08-08T13:51:13;100450.31;;;21.33
59339;BMP280;45117;50.960;5.500;2023-08-08T13:53:40;100542.91;;;22.03
59339;BMP280;45117;50.960;5.500;2023-08-08T13:56:07;100481.88;;;21.34
59339;BMP280;45117;50.960;5.500;2023-08-08T13:58:42;100492.53;;;21.57
59339;BMP280;45117;50.960;5.500;2023-08-08T14:01:09;100452.38;;;21.43
59339;BMP280;45117;50.960;5.500;2023-08-08T14:03:36;100511.47;;;21.92
59339;BMP280;45117;50.960;5.500;2023-08-08T14:06:03;100471.19;;;21.36
59339;BMP280;45117;50.960;5.500;2023-08-08T14:08:33;100454.66;;;20.98
59339;BMP280;45117;50.960;5.500;2023-08-08T14:11:00;100459.03;;;21.11
59339;BMP280;45117;50.960;5.500;2023-08-08T14:13:26;100454.66;;;20.98
59339;BMP280;45117;50.960;5.500;2023-08-08T14:15:53;100546.59;;;22.00
59339;BMP280;45117;50.960;5.500;2023-08-08T14:18:20;100450.84;;;20.70